Time;durP1;ratioP1;P1;durP2;ratioP2;P2;SDS_P1;SDS_P2;PMS_P1;PMS_P2;Temp;Humidity;BMP_temperature;BMP_pressure;BME280_temperature;BME280_humidity;BME280_pressure;Samples;Min_cycle;Max_cycle;Signal;HPM_P1;HPM_P2
2022/01/02 00:02:16;;;;;;;;;;;22.00;49.30;;;;;;5117214;28;19924;-55
2022/01/02 00:04:47;;;;;;;;;;;22.00;49.20;;;;;;5115884;27;19930;-55
2022/01/02 00:07:16;;;;;;;;;;;22.00;49.30;;;;;;5117111;28;19955;-52
2022/01/02 00:09:45;;;;;;;;;;;22.00;49.30;;;;;;5117031;28;19930;-49
2022/01/02 00:12:16;;;;;;;;;;;22.00;49.30;;;;;;5116968;28;20014;-58
2022/01/02 00:14:44;;;;;;;;;;;22.00;49.30;;;;;;5117543;28;19931;-55
2022/01/02 00:17:12;;;;;;;;;;;22.00;49.30;;;;;;5116674;28;19930;-57
2022/01/02 00:19:45;;;;;;;;;;;22.00;49.30;;;;;;5115459;28;19930;-55
2022/01/02 00:22:16;;;;;;;;;;;22.00;49.20;;;;;;5115374;28;19923;-51
2022/01/02 00:24:44;;;;;;;;;;;22.00;49.30;;;;;;5117065;28;20009;-46
2022/01/02 00:27:13;;;;;;;;;;;22.00;49.30;;;;;;5117811;28;20030;-53
2022/01/02 00:29:42;;;;;;;;;;;22.00;49.30;;;;;;5098584;28;20003;-54
2022/01/02 00:32:10;;;;;;;;;;;22.00;49.30;;;;;;5116563;28;19923;-56
2022/01/02 00:34:38;;;;;;;;;;;22.00;49.30;;;;;;5115716;28;19967;-46
2022/01/02 00:37:06;;;;;;;;;;;22.00;49.30;;;;;;5116642;28;19931;-52
2022/01/02 00:39:33;;;;;;;;;;;21.90;49.20;;;;;;5116434;28;20006;-56
2022/01/02 00:42:05;;;;;;;;;;;21.90;49.20;;;;;;5116696;28;19931;-57
2022/01/02 00:44:38;;;;;;;;;;;21.90;49.20;;;;;;5116889;28;19931;-50
2022/01/02 00:47:31;;;;;;;;;;;21.90;49.30;;;;;;5116549;28;19971;-50
2022/01/02 00:49:58;;;;;;;;;;;21.90;49.20;;;;;;5078544;28;20405;-58
2022/01/02 00:52:26;;;;;;;;;;;21.90;49.20;;;;;;5116008;28;19938;-52
2022/01/02 00:54:54;;;;;;;;;;;21.90;49.20;;;;;;5116489;28;19924;-52
2022/01/02 00:57:23;;;;;;;;;;;21.90;49.30;;;;;;5116028;28;19970;-52
2022/01/02 01:00:09;;;;;;;;;;;21.90;49.20;;;;;;5115997;28;19924;-51
2022/01/02 01:02:55;;;;;;;;;;;21.90;49.20;;;;;;5116295;28;20286;-56
2022/01/02 01:05:24;;;;;;;;;;;21.90;49.20;;;;;;5114848;27;19924;-52
2022/01/02 01:07:52;;;;;;;;;;;21.90;49.20;;;;;;5115912;28;20010;-54
2022/01/02 01:10:21;;;;;;;;;;;21.90;49.20;;;;;;5098113;28;19931;-52
2022/01/02 01:12:49;;;;;;;;;;;21.90;49.30;;;;;;5115796;28;19927;-56
2022/01/02 01:15:16;;;;;;;;;;;21.90;49.30;;;;;;5116044;28;20350;-57
2022/01/02 01:17:44;;;;;;;;;;;21.90;49.30;;;;;;5116012;28;20024;-49
2022/01/02 01:20:14;;;;;;;;;;;21.90;49.30;;;;;;5114886;27;19923;-50
2022/01/02 01:22:42;;;;;;;;;;;21.90;49.30;;;;;;5115280;28;19924;-54
2022/01/02 01:25:15;;;;;;;;;;;21.90;49.30;;;;;;5115587;28;19927;-56
2022/01/02 01:27:43;;;;;;;;;;;21.90;49.30;;;;;;5115539;28;19924;-48
2022/01/02 01:30:11;;;;;;;;;;;21.90;49.30;;;;;;5115508;28;20378;-46
2022/01/02 01:32:38;;;;;;;;;;;21.90;49.20;;;;;;5115293;28;19927;-50
2022/01/02 01:35:06;;;;;;;;;;;21.90;49.30;;;;;;5114098;28;20035;-48
2022/01/02 01:37:33;;;;;;;;;;;21.90;49.30;;;;;;5115816;28;20359;-47
2022/01/02 01:40:00;;;;;;;;;;;21.90;49.20;;;;;;5115263;28;20014;-52
2022/01/02 01:42:39;;;;;;;;;;;21.90;49.20;;;;;;5115474;28;19931;-51
2022/01/02 01:47:49;;;;;;;;;;;21.90;49.20;;;;;;5115394;28;19924;-46
2022/01/02 01:50:17;;;;;;;;;;;21.80;49.20;;;;;;5113893;28;19924;-46
2022/01/02 01:52:45;;;;;;;;;;;21.90;49.20;;;;;;5115465;28;19930;-53
2022/01/02 01:55:12;;;;;;;;;;;21.80;49.20;;;;;;5115267;28;20034;-52
2022/01/02 01:57:40;;;;;;;;;;;21.80;49.80;;;;;;5115175;28;20018;-56
2022/01/02 02:00:09;;;;;;;;;;;21.90;49.20;;;;;;5115230;28;20365;-53
2022/01/02 02:02:37;;;;;;;;;;;21.80;49.20;;;;;;5115041;28;19923;-58
2022/01/02 02:05:05;;;;;;;;;;;21.90;49.30;;;;;;5113753;28;19924;-53
2022/01/02 02:07:39;;;;;;;;;;;21.80;49.20;;;;;;5114764;28;19931;-56
2022/01/02 02:10:12;;;;;;;;;;;21.80;49.20;;;;;;5115071;28;20002;-54
2022/01/02 02:12:40;;;;;;;;;;;21.80;49.20;;;;;;5114726;28;20406;-57
2022/01/02 02:15:10;;;;;;;;;;;21.80;49.20;;;;;;5115155;28;19928;-50
2022/01/02 02:17:37;;;;;;;;;;;21.80;49.20;;;;;;5114386;28;19924;-50
2022/01/02 02:20:12;;;;;;;;;;;21.80;49.20;;;;;;5113648;28;19967;-50
2022/01/02 02:22:41;;;;;;;;;;;21.90;49.20;;;;;;5114447;28;20295;-50
2022/01/02 02:25:09;;;;;;;;;;;21.80;49.10;;;;;;5114805;28;20010;-55
2022/01/02 02:27:36;;;;;;;;;;;21.80;49.10;;;;;;5114445;28;19924;-52
2022/01/02 02:30:04;;;;;;;;;;;21.80;49.10;;;;;;5114692;28;19931;-51
2022/01/02 02:32:31;;;;;;;;;;;21.80;49.20;;;;;;5114347;28;19924;-57
2022/01/02 02:34:58;;;;;;;;;;;21.80;49.20;;;;;;5113326;28;20030;-52
2022/01/02 02:37:29;;;;;;;;;;;21.80;49.20;;;;;;5114510;28;19924;-52
2022/01/02 02:39:56;;;;;;;;;;;21.80;49.20;;;;;;5114274;28;19978;-56
2022/01/02 02:42:37;;;;;;;;;;;21.80;49.20;;;;;;5114231;28;19931;-50
2022/01/02 02:48:59;;;;;;;;;;;21.80;49.20;;;;;;5113575;28;19923;-47
2022/01/02 02:50:44;;;;;;;;;;;21.80;49.20;;;;;;5112968;28;19924;-53
2022/01/02 02:53:12;;;;;;;;;;;21.80;49.20;;;;;;5113940;28;19969;-51
2022/01/02 02:55:44;;;;;;;;;;;21.80;49.20;;;;;;5114071;28;19924;-53
2022/01/02 02:58:44;;;;;;;;;;;21.80;49.20;;;;;;5114929;28;19924;-52
2022/01/02 03:01:04;;;;;;;;;;;21.80;49.20;;;;;;5111577;28;19924;-54
2022/01/02 03:03:32;;;;;;;;;;;21.80;49.20;;;;;;5114030;28;20398;-48
2022/01/02 03:05:59;;;;;;;;;;;21.80;49.20;;;;;;5112796;28;19935;-53
2022/01/02 03:08:27;;;;;;;;;;;21.80;49.20;;;;;;5114202;28;20001;-48
2022/01/02 03:10:54;;;;;;;;;;;21.80;49.20;;;;;;5113945;28;19930;-46
2022/01/02 03:13:21;;;;;;;;;;;21.80;49.20;;;;;;5114280;28;19923;-51
2022/01/02 03:15:48;;;;;;;;;;;21.80;49.20;;;;;;5113939;28;19924;-50
2022/01/02 03:18:15;;;;;;;;;;;21.80;49.20;;;;;;5095858;28;19924;-51
2022/01/02 03:20:42;;;;;;;;;;;21.80;49.20;;;;;;5112747;28;19931;-49
2022/01/02 03:23:10;;;;;;;;;;;21.80;49.20;;;;;;5113755;28;19930;-52
2022/01/02 03:25:37;;;;;;;;;;;21.80;49.20;;;;;;5113835;28;20014;-52
2022/01/02 03:28:04;;;;;;;;;;;21.80;49.20;;;;;;5113807;28;19930;-51
2022/01/02 03:30:32;;;;;;;;;;;21.80;49.20;;;;;;5114104;28;19930;-53
2022/01/02 03:32:59;;;;;;;;;;;21.80;49.80;;;;;;5113785;28;19971;-53
2022/01/02 03:35:27;;;;;;;;;;;21.70;49.10;;;;;;5094536;28;19938;-52
2022/01/02 03:37:54;;;;;;;;;;;21.70;49.10;;;;;;5113946;28;19931;-47
2022/01/02 03:40:21;;;;;;;;;;;21.70;49.10;;;;;;5114031;28;19959;-55
2022/01/02 03:42:48;;;;;;;;;;;21.80;49.20;;;;;;5114008;28;20035;-57
2022/01/02 03:45:15;;;;;;;;;;;21.70;49.10;;;;;;5113640;28;19930;-51
2022/01/02 03:47:43;;;;;;;;;;;21.80;49.20;;;;;;5113819;28;19924;-48
2022/01/02 03:50:11;;;;;;;;;;;21.70;49.20;;;;;;5113063;28;19924;-49
2022/01/02 03:52:39;;;;;;;;;;;21.70;49.10;;;;;;5113147;28;19928;-56
2022/01/02 03:55:07;;;;;;;;;;;21.70;49.10;;;;;;5114684;28;19931;-51
2022/01/02 03:57:35;;;;;;;;;;;21.70;49.10;;;;;;5117505;28;20350;-53
2022/01/02 04:00:06;;;;;;;;;;;21.70;49.10;;;;;;5117527;28;19923;-48
2022/01/02 04:02:37;;;;;;;;;;;21.70;49.10;;;;;;5117499;28;19924;-57
2022/01/02 04:05:06;;;;;;;;;;;21.70;49.10;;;;;;5117192;28;20344;-51
2022/01/02 04:07:33;;;;;;;;;;;21.70;49.10;;;;;;5116240;27;19924;-56
2022/01/02 04:10:05;;;;;;;;;;;21.70;49.10;;;;;;5117337;28;19966;-55
2022/01/02 04:12:33;;;;;;;;;;;21.70;49.10;;;;;;5117036;28;19924;-51
2022/01/02 04:15:00;;;;;;;;;;;21.70;49.10;;;;;;5116943;28;19970;-50
2022/01/02 04:17:27;;;;;;;;;;;21.70;49.10;;;;;;5117008;28;20321;-57
2022/01/02 04:19:54;;;;;;;;;;;21.70;49.10;;;;;;5116849;28;19931;-55
2022/01/02 04:22:21;;;;;;;;;;;21.70;49.10;;;;;;5097425;28;19924;-56
2022/01/02 04:24:49;;;;;;;;;;;21.70;49.10;;;;;;5117347;28;19923;-52
2022/01/02 04:27:18;;;;;;;;;;;21.70;49.10;;;;;;5117020;28;19924;-55
2022/01/02 04:29:46;;;;;;;;;;;21.70;49.10;;;;;;5116653;28;19966;-51
2022/01/02 04:32:14;;;;;;;;;;;21.70;49.10;;;;;;5116905;28;19930;-50
2022/01/02 04:34:41;;;;;;;;;;;21.70;49.10;;;;;;5116857;28;19970;-51
2022/01/02 04:37:09;;;;;;;;;;;21.70;49.10;;;;;;5115221;27;19924;-49
2022/01/02 04:39:37;;;;;;;;;;;21.70;49.10;;;;;;5116779;28;20295;-57
2022/01/02 04:42:06;;;;;;;;;;;21.70;49.10;;;;;;5116435;28;20397;-52
2022/01/02 04:44:33;;;;;;;;;;;21.70;49.10;;;;;;5116350;28;19924;-54
2022/01/02 04:47:01;;;;;;;;;;;21.70;49.10;;;;;;5116197;28;19924;-55
2022/01/02 04:49:28;;;;;;;;;;;21.70;49.10;;;;;;5116268;28;19923;-52
2022/01/02 04:51:55;;;;;;;;;;;21.70;49.10;;;;;;5115255;28;20309;-53
2022/01/02 04:54:23;;;;;;;;;;;21.70;49.10;;;;;;5116161;28;19931;-50
2022/01/02 04:56:50;;;;;;;;;;;21.70;49.10;;;;;;5116367;28;19931;-56
2022/01/02 04:59:18;;;;;;;;;;;21.70;49.10;;;;;;5116335;28;19931;-56
2022/01/02 05:01:45;;;;;;;;;;;21.70;49.10;;;;;;5116355;28;19924;-50
2022/01/02 05:04:13;;;;;;;;;;;21.70;49.10;;;;;;5116266;28;19923;-56
2022/01/02 05:06:40;;;;;;;;;;;21.70;49.10;;;;;;5114358;27;19923;-53
2022/01/02 05:09:08;;;;;;;;;;;21.70;49.10;;;;;;5116209;28;19928;-57
2022/01/02 05:11:36;;;;;;;;;;;21.70;49.10;;;;;;5116457;28;19924;-49
2022/01/02 05:14:03;;;;;;;;;;;21.70;49.10;;;;;;5115817;28;19924;-52
2022/01/02 05:16:30;;;;;;;;;;;21.70;49.10;;;;;;5115645;28;20014;-53
2022/01/02 05:18:58;;;;;;;;;;;21.70;49.10;;;;;;5115941;28;19923;-52
2022/01/02 05:21:25;;;;;;;;;;;21.70;49.10;;;;;;5096427;28;20394;-55
2022/01/02 05:23:52;;;;;;;;;;;21.70;49.10;;;;;;5115321;28;19930;-56
2022/01/02 05:26:19;;;;;;;;;;;21.70;49.10;;;;;;5115566;28;20015;-57
2022/01/02 05:28:46;;;;;;;;;;;21.70;49.20;;;;;;5115774;28;19923;-54
2022/01/02 05:31:13;;;;;;;;;;;21.70;49.10;;;;;;5097405;28;20394;-51
2022/01/02 05:33:40;;;;;;;;;;;21.70;49.10;;;;;;5115652;28;19938;-58
2022/01/02 05:36:07;;;;;;;;;;;21.70;49.10;;;;;;5115672;28;20014;-54
2022/01/02 05:38:34;;;;;;;;;;;21.70;49.10;;;;;;5114036;27;19930;-48
2022/01/02 05:41:01;;;;;;;;;;;21.60;49.00;;;;;;5115250;28;20376;-52
2022/01/02 05:43:29;;;;;;;;;;;21.60;49.00;;;;;;5115220;28;19924;-52
2022/01/02 05:46:03;;;;;;;;;;;21.70;49.10;;;;;;5115023;28;19923;-54
2022/01/02 05:48:30;;;;;;;;;;;21.60;49.00;;;;;;5115445;28;19928;-52
2022/01/02 05:50:59;;;;;;;;;;;21.60;49.00;;;;;;5115321;28;19966;-53
2022/01/02 05:53:26;;;;;;;;;;;21.60;49.00;;;;;;5113879;28;19985;-58
2022/01/02 05:55:53;;;;;;;;;;;21.60;49.00;;;;;;5114988;28;19924;-56
2022/01/02 05:58:21;;;;;;;;;;;21.60;49.00;;;;;;5096866;28;19932;-51
2022/01/02 06:00:49;;;;;;;;;;;21.60;49.00;;;;;;5114901;28;19924;-53
2022/01/02 06:03:16;;;;;;;;;;;21.60;49.00;;;;;;5114842;28;19924;-52
2022/01/02 06:05:43;;;;;;;;;;;21.60;49.00;;;;;;5096783;28;19924;-52
2022/01/02 06:08:10;;;;;;;;;;;21.60;49.00;;;;;;5113909;27;19923;-48
2022/01/02 06:10:37;;;;;;;;;;;21.60;49.00;;;;;;5115025;28;20271;-55
2022/01/02 06:13:04;;;;;;;;;;;21.60;49.00;;;;;;5114990;28;19923;-52
2022/01/02 06:15:32;;;;;;;;;;;21.60;49.00;;;;;;5114644;28;19924;-49
2022/01/02 06:17:59;;;;;;;;;;;21.60;49.00;;;;;;5114318;28;19924;-50
2022/01/02 06:20:26;;;;;;;;;;;21.60;49.00;;;;;;5114552;28;19924;-56
2022/01/02 06:22:54;;;;;;;;;;;21.60;49.00;;;;;;5113458;28;19923;-54
2022/01/02 06:25:22;;;;;;;;;;;21.60;49.00;;;;;;5114473;28;20387;-50
2022/01/02 06:27:49;;;;;;;;;;;21.60;49.00;;;;;;5114466;28;19930;-47
2022/01/02 06:30:17;;;;;;;;;;;21.60;49.00;;;;;;5114713;28;19924;-58
2022/01/02 06:32:44;;;;;;;;;;;21.60;49.00;;;;;;5114380;28;19928;-53
2022/01/02 06:35:12;;;;;;;;;;;21.60;49.00;;;;;;5114340;28;19924;-56
2022/01/02 06:37:39;;;;;;;;;;;21.60;49.00;;;;;;5113084;27;19980;-57
2022/01/02 06:40:07;;;;;;;;;;;21.60;49.00;;;;;;5114631;28;19924;-50
2022/01/02 06:42:34;;;;;;;;;;;21.60;49.00;;;;;;5114241;28;19923;-54
2022/01/02 06:45:01;;;;;;;;;;;21.60;49.00;;;;;;5114517;28;19924;-55
2022/01/02 06:47:28;;;;;;;;;;;21.60;49.00;;;;;;5114415;28;19924;-52
2022/01/02 06:49:55;;;;;;;;;;;21.60;49.00;;;;;;5114133;28;19930;-53
2022/01/02 06:52:22;;;;;;;;;;;21.60;49.00;;;;;;5112882;28;19930;-49
2022/01/02 06:54:53;;;;;;;;;;;21.60;49.00;;;;;;5114416;28;20298;-49
2022/01/02 06:57:21;;;;;;;;;;;21.60;49.00;;;;;;5114350;28;19934;-58
2022/01/02 06:59:48;;;;;;;;;;;21.60;49.00;;;;;;5114350;28;19924;-56
2022/01/02 07:02:19;;;;;;;;;;;21.60;49.00;;;;;;5114385;28;19923;-57
2022/01/02 07:04:46;;;;;;;;;;;21.60;49.00;;;;;;5114069;28;19923;-54
2022/01/02 07:07:13;;;;;;;;;;;21.60;49.00;;;;;;5115422;28;19930;-51
2022/01/02 07:09:40;;;;;;;;;;;21.60;49.00;;;;;;5113314;28;19928;-52
2022/01/02 07:12:07;;;;;;;;;;;21.60;49.00;;;;;;5114296;28;19971;-48
2022/01/02 07:14:35;;;;;;;;;;;21.60;48.90;;;;;;5113941;28;19923;-54
2022/01/02 07:17:02;;;;;;;;;;;21.60;48.90;;;;;;5113812;28;19931;-50
2022/01/02 07:19:29;;;;;;;;;;;21.60;48.90;;;;;;5113839;28;19924;-51
2022/01/02 07:21:58;;;;;;;;;;;21.60;48.90;;;;;;5113688;28;19924;-56
2022/01/02 07:24:26;;;;;;;;;;;21.60;48.90;;;;;;5112814;28;20295;-49
2022/01/02 07:26:53;;;;;;;;;;;21.60;48.90;;;;;;5114194;28;19924;-56
2022/01/02 07:29:20;;;;;;;;;;;21.60;48.90;;;;;;5113808;28;20306;-58
2022/01/02 07:31:48;;;;;;;;;;;21.60;48.90;;;;;;5117480;28;19931;-54
2022/01/02 07:34:16;;;;;;;;;;;21.60;48.90;;;;;;5118041;28;19930;-54
2022/01/02 07:36:44;;;;;;;;;;;21.60;48.90;;;;;;5099671;28;19924;-57
2022/01/02 07:39:15;;;;;;;;;;;21.60;48.80;;;;;;5116333;27;19930;-52
2022/01/02 07:41:42;;;;;;;;;;;21.60;48.80;;;;;;5117484;28;20031;-52
2022/01/02 07:44:09;;;;;;;;;;;21.60;48.80;;;;;;5117510;28;19923;-48
2022/01/02 07:46:36;;;;;;;;;;;21.60;48.80;;;;;;5117509;28;19924;-51
2022/01/02 07:49:03;;;;;;;;;;;21.60;48.80;;;;;;5117499;28;19928;-57
2022/01/02 07:51:31;;;;;;;;;;;21.60;48.80;;;;;;5117684;28;19924;-49
2022/01/02 07:54:00;;;;;;;;;;;21.70;48.80;;;;;;5124665;27;19923;-47
2022/01/02 07:56:27;;;;;;;;;;;21.60;48.70;;;;;;5137888;27;20433;-58
2022/01/02 07:58:55;;;;;;;;;;;21.70;48.80;;;;;;5137772;27;19934;-58
2022/01/02 08:01:23;;;;;;;;;;;21.60;48.70;;;;;;5138106;27;19924;-58
2022/01/02 08:03:51;;;;;;;;;;;21.70;48.80;;;;;;5137761;27;20011;-50
2022/01/02 08:06:18;;;;;;;;;;;21.70;48.70;;;;;;5137695;27;19927;-49
2022/01/02 08:08:45;;;;;;;;;;;21.70;48.70;;;;;;5129303;27;19965;-52
2022/01/02 08:11:15;;;;;;;;;;;21.60;48.60;;;;;;5116990;28;19924;-53
2022/01/02 08:14:02;;;;;;;;;;;21.70;48.60;;;;;;5117231;28;19973;-56
2022/01/02 08:16:30;;;;;;;;;;;21.70;48.60;;;;;;5117079;28;19924;-51
2022/01/02 08:18:57;;;;;;;;;;;21.70;48.60;;;;;;5116823;28;19968;-50
2022/01/02 08:21:24;;;;;;;;;;;21.70;48.60;;;;;;5117113;28;19924;-49
2022/01/02 08:23:51;;;;;;;;;;;21.70;48.50;;;;;;5115450;27;19928;-55
2022/01/02 08:26:20;;;;;;;;;;;21.70;48.50;;;;;;5116765;28;19924;-51
2022/01/02 08:28:47;;;;;;;;;;;21.70;48.50;;;;;;5116715;28;19931;-56
2022/01/02 08:31:14;;;;;;;;;;;21.70;48.40;;;;;;5116538;28;19924;-55
2022/01/02 08:33:42;;;;;;;;;;;21.70;48.40;;;;;;5116909;28;19924;-55
2022/01/02 08:36:09;;;;;;;;;;;21.80;48.40;;;;;;5116575;28;19923;-55
2022/01/02 08:38:36;;;;;;;;;;;21.80;48.40;;;;;;5115440;28;19931;-57
2022/01/02 08:41:03;;;;;;;;;;;21.80;48.40;;;;;;5115972;28;19924;-57
2022/01/02 08:43:30;;;;;;;;;;;21.80;48.30;;;;;;5115780;28;19924;-57
2022/01/02 08:45:57;;;;;;;;;;;21.80;48.30;;;;;;5116247;28;19924;-52
2022/01/02 08:48:25;;;;;;;;;;;21.80;48.20;;;;;;5116594;28;20352;-52
2022/01/02 08:50:52;;;;;;;;;;;21.80;48.20;;;;;;5116544;28;19924;-59
2022/01/02 08:53:19;;;;;;;;;;;21.80;48.10;;;;;;5098053;28;19928;-50
2022/01/02 08:55:46;;;;;;;;;;;21.80;48.10;;;;;;5115335;27;19946;-53
2022/01/02 08:58:13;;;;;;;;;;;21.90;48.20;;;;;;5116409;28;20321;-48
2022/01/02 09:00:40;;;;;;;;;;;21.90;48.10;;;;;;5116122;28;19928;-56
2022/01/02 09:03:07;;;;;;;;;;;21.90;48.10;;;;;;5116383;28;20335;-54
2022/01/02 09:05:35;;;;;;;;;;;21.90;48.10;;;;;;5116294;28;20001;-51
2022/01/02 09:08:02;;;;;;;;;;;21.90;48.10;;;;;;5115940;28;19923;-56
2022/01/02 09:10:29;;;;;;;;;;;21.90;48.00;;;;;;5114626;28;20393;-51
2022/01/02 09:12:56;;;;;;;;;;;22.00;48.10;;;;;;5116185;28;19923;-54
2022/01/02 09:15:23;;;;;;;;;;;22.00;48.10;;;;;;5115820;28;19931;-48
2022/01/02 09:17:50;;;;;;;;;;;22.00;48.00;;;;;;5115901;28;19946;-51
2022/01/02 09:20:17;;;;;;;;;;;22.00;48.00;;;;;;5116282;28;19928;-49
2022/01/02 09:22:46;;;;;;;;;;;22.00;47.90;;;;;;5115580;28;19936;-51
2022/01/02 09:25:14;;;;;;;;;;;22.00;47.90;;;;;;5114540;28;19924;-55
2022/01/02 09:27:41;;;;;;;;;;;22.10;47.90;;;;;;5115566;28;19935;-56
2022/01/02 09:30:08;;;;;;;;;;;22.10;47.90;;;;;;5115823;28;19931;-58
2022/01/02 09:32:35;;;;;;;;;;;22.00;47.70;;;;;;5115436;28;19924;-52
2022/01/02 09:35:04;;;;;;;;;;;22.10;47.70;;;;;;5115424;28;19923;-57
2022/01/02 09:37:31;;;;;;;;;;;22.10;47.70;;;;;;5115590;28;19931;-54
2022/01/02 09:39:58;;;;;;;;;;;22.10;47.70;;;;;;5096217;28;19931;-52
2022/01/02 09:42:25;;;;;;;;;;;22.10;47.60;;;;;;5115245;28;19924;-52
2022/01/02 09:44:53;;;;;;;;;;;22.10;47.60;;;;;;5115147;28;20375;-49
2022/01/02 09:47:21;;;;;;;;;;;22.10;47.50;;;;;;5097634;28;19924;-51
2022/01/02 09:49:48;;;;;;;;;;;22.20;47.60;;;;;;5115156;28;19971;-58
2022/01/02 09:52:17;;;;;;;;;;;22.20;47.60;;;;;;5114989;28;19924;-52
2022/01/02 09:54:44;;;;;;;;;;;22.20;47.50;;;;;;5113497;27;19924;-51
2022/01/02 09:57:11;;;;;;;;;;;22.20;47.50;;;;;;5115843;28;19924;-54
2022/01/02 09:59:39;;;;;;;;;;;22.20;47.50;;;;;;5115163;28;19924;-58
2022/01/02 10:02:06;;;;;;;;;;;22.20;47.50;;;;;;5115242;28;20290;-50
2022/01/02 10:04:35;;;;;;;;;;;22.20;47.40;;;;;;5115167;28;19923;-49
2022/01/02 10:07:03;;;;;;;;;;;22.20;47.40;;;;;;5115120;28;19946;-52
2022/01/02 10:09:38;;;;;;;;;;;22.30;47.40;;;;;;5113602;27;19924;-57
2022/01/02 10:12:25;;;;;;;;;;;22.30;47.40;;;;;;5114731;28;19938;-58
2022/01/02 10:15:11;;;;;;;;;;;22.30;47.40;;;;;;5114956;28;19946;-55
2022/01/02 10:17:50;;;;;;;;;;;22.30;47.40;;;;;;5114514;28;20375;-53
2022/01/02 10:20:17;;;;;;;;;;;22.30;47.30;;;;;;5114516;28;19930;-51
2022/01/02 10:23:03;;;;;;;;;;;22.30;47.40;;;;;;5114148;28;19924;-52
2022/01/02 10:25:36;;;;;;;;;;;22.30;47.30;;;;;;5113271;28;19923;-51
2022/01/02 10:28:25;;;;;;;;;;;22.30;47.30;;;;;;5114714;28;19930;-50
2022/01/02 10:30:54;;;;;;;;;;;22.30;47.20;;;;;;5114723;28;19924;-54
2022/01/02 10:33:21;;;;;;;;;;;22.40;47.30;;;;;;5114914;28;19927;-50
2022/01/02 10:35:59;;;;;;;;;;;22.40;47.30;;;;;;5114349;28;19924;-52
2022/01/02 10:38:27;;;;;;;;;;;22.40;47.20;;;;;;5114251;28;19924;-53
2022/01/02 10:40:55;;;;;;;;;;;22.40;47.20;;;;;;5113008;28;19924;-55
2022/01/02 10:43:27;;;;;;;;;;;22.40;47.20;;;;;;5114571;28;20016;-54
2022/01/02 10:45:55;;;;;;;;;;;22.40;47.20;;;;;;5114341;28;19931;-50
2022/01/02 10:48:33;;;;;;;;;;;22.40;47.20;;;;;;5114594;28;19945;-51
2022/01/02 10:51:01;;;;;;;;;;;22.40;47.10;;;;;;5114537;28;19924;-46
2022/01/02 10:53:29;;;;;;;;;;;22.40;47.10;;;;;;5114257;28;19931;-52
2022/01/02 10:55:56;;;;;;;;;;;22.50;47.20;;;;;;5112807;28;19924;-55
2022/01/02 10:58:25;;;;;;;;;;;22.50;47.10;;;;;;5114057;28;19924;-48
2022/01/02 11:00:52;;;;;;;;;;;22.50;47.10;;;;;;5114107;28;19924;-49
2022/01/02 11:03:23;;;;;;;;;;;22.50;47.00;;;;;;5114093;28;19930;-51
2022/01/02 11:05:56;;;;;;;;;;;22.50;47.00;;;;;;5117206;28;19997;-50
2022/01/02 11:08:25;;;;;;;;;;;22.50;47.00;;;;;;5118551;28;20404;-49
2022/01/02 11:10:53;;;;;;;;;;;22.50;47.00;;;;;;5117111;27;20414;-57
2022/01/02 11:13:20;;;;;;;;;;;22.50;47.00;;;;;;5118537;28;19924;-57
2022/01/02 11:15:47;;;;;;;;;;;22.60;47.00;;;;;;5118034;28;20306;-57
2022/01/02 11:18:15;;;;;;;;;;;22.60;47.00;;;;;;5118033;28;19923;-59
2022/01/02 11:20:42;;;;;;;;;;;22.60;47.00;;;;;;5118020;28;19966;-55
2022/01/02 11:23:12;;;;;;;;;;;22.60;47.00;;;;;;5117956;28;20007;-49
2022/01/02 11:25:44;;;;;;;;;;;22.60;47.00;;;;;;5117299;28;19930;-49
2022/01/02 11:28:35;;;;;;;;;;;22.50;46.90;;;;;;5118158;28;19924;-53
2022/01/02 11:31:03;;;;;;;;;;;22.60;47.00;;;;;;5106036;28;19924;-54
2022/01/02 11:33:33;;;;;;;;;;;22.60;47.00;;;;;;5118108;28;19937;-58
2022/01/02 11:36:38;;;;;;;;;;;22.60;47.60;;;;;;5117770;28;20375;-53
2022/01/02 11:39:07;;;;;;;;;;;22.60;47.00;;;;;;5015434;28;19995;-55
2022/01/02 11:41:34;;;;;;;;;;;22.60;47.00;;;;;;5025065;28;19932;-57
2022/01/02 11:44:01;;;;;;;;;;;22.60;47.00;;;;;;5035039;28;19929;-57
2022/01/02 11:46:30;;;;;;;;;;;22.60;47.60;;;;;;5034812;28;19962;-56
2022/01/02 11:49:03;;;;;;;;;;;22.60;47.00;;;;;;5034887;28;19925;-53
2022/01/02 11:51:51;;;;;;;;;;;22.60;47.00;;;;;;5034815;28;20405;-56
2022/01/02 11:54:40;;;;;;;;;;;22.60;47.00;;;;;;5034993;28;19932;-57
2022/01/02 11:57:18;;;;;;;;;;;22.70;47.00;;;;;;5033449;28;20320;-55
2022/01/02 11:59:45;;;;;;;;;;;22.70;47.00;;;;;;5034659;28;19925;-53
2022/01/02 12:02:13;;;;;;;;;;;22.70;47.00;;;;;;5034610;28;20321;-52
2022/01/02 12:05:14;;;;;;;;;;;22.70;47.00;;;;;;5034607;28;20403;-49
2022/01/02 12:07:45;;;;;;;;;;;22.70;47.10;;;;;;5034591;28;19924;-58
2022/01/02 12:10:22;;;;;;;;;;;22.70;47.00;;;;;;5086791;28;20295;-55
2022/01/02 12:13:17;;;;;;;;;;;22.70;47.60;;;;;;5115892;27;20019;-57
2022/01/02 12:15:44;;;;;;;;;;;22.70;47.00;;;;;;5117048;28;20298;-49
2022/01/02 12:18:33;;;;;;;;;;;22.70;47.00;;;;;;5117179;28;19928;-53
2022/01/02 12:21:00;;;;;;;;;;;22.70;47.00;;;;;;5116941;28;19923;-50
2022/01/02 12:23:30;;;;;;;;;;;22.70;47.00;;;;;;5116770;28;19924;-51
2022/01/02 12:25:59;;;;;;;;;;;22.70;47.10;;;;;;5115844;28;19931;-59
2022/01/02 12:28:28;;;;;;;;;;;22.70;47.10;;;;;;5116727;28;19928;-57
2022/01/02 12:30:56;;;;;;;;;;;22.70;47.10;;;;;;5117012;28;20014;-57
2022/01/02 12:33:24;;;;;;;;;;;22.70;47.10;;;;;;5116961;28;20295;-49
2022/01/02 12:35:51;;;;;;;;;;;22.70;47.10;;;;;;5116894;28;19924;-57
2022/01/02 12:38:18;;;;;;;;;;;22.70;47.10;;;;;;5098558;28;19924;-47
2022/01/02 12:40:49;;;;;;;;;;;22.70;47.10;;;;;;5116479;28;19931;-53
2022/01/02 12:43:23;;;;;;;;;;;22.70;47.10;;;;;;5116370;28;19924;-54
2022/01/02 12:45:53;;;;;;;;;;;22.70;47.10;;;;;;5116669;28;19924;-56
2022/01/02 12:48:35;;;;;;;;;;;22.80;47.20;;;;;;5116382;28;19985;-55
2022/01/02 12:51:11;;;;;;;;;;;22.70;47.00;;;;;;5116702;28;19946;-53
2022/01/02 12:53:39;;;;;;;;;;;22.80;47.20;;;;;;5116135;28;19923;-53
2022/01/02 12:56:06;;;;;;;;;;;22.70;47.10;;;;;;5115652;27;19957;-57
2022/01/02 12:58:34;;;;;;;;;;;22.70;47.10;;;;;;5136524;27;19930;-57
2022/01/02 13:01:02;;;;;;;;;;;22.80;47.20;;;;;;5136918;27;19973;-57
2022/01/02 13:03:35;;;;;;;;;;;22.80;47.20;;;;;;5136997;27;19923;-57
2022/01/02 13:06:02;;;;;;;;;;;22.70;47.10;;;;;;5118422;27;19924;-58
2022/01/02 13:08:29;;;;;;;;;;;22.80;47.20;;;;;;5136542;27;19930;-51
2022/01/02 13:11:08;;;;;;;;;;;22.80;47.20;;;;;;5136452;27;19924;-48
2022/01/02 13:13:35;;;;;;;;;;;22.80;47.20;;;;;;5115163;27;19924;-52
2022/01/02 13:16:08;;;;;;;;;;;22.80;47.20;;;;;;5115696;28;19927;-52
2022/01/02 13:18:36;;;;;;;;;;;22.80;47.20;;;;;;5116075;28;19963;-54
2022/01/02 13:21:06;;;;;;;;;;;22.80;47.20;;;;;;5115654;28;19989;-53
2022/01/02 13:23:33;;;;;;;;;;;22.80;47.30;;;;;;5115604;28;19923;-55
2022/01/02 13:26:14;;;;;;;;;;;22.80;47.30;;;;;;5115935;28;19928;-50
2022/01/02 13:28:41;;;;;;;;;;;22.80;47.30;;;;;;5114107;27;19965;-57
2022/01/02 13:31:08;;;;;;;;;;;22.70;47.30;;;;;;5115518;28;19927;-48
2022/01/02 13:33:43;;;;;;;;;;;22.80;47.30;;;;;;5115471;28;19930;-58
2022/01/02 13:36:11;;;;;;;;;;;22.80;47.40;;;;;;5115782;28;19931;-51
2022/01/02 13:39:07;;;;;;;;;;;22.80;47.30;;;;;;5115373;28;20401;-56
2022/01/02 13:41:36;;;;;;;;;;;22.80;47.30;;;;;;5075598;28;19927;-58
2022/01/02 13:44:15;;;;;;;;;;;22.80;47.30;;;;;;5115463;28;19931;-52
2022/01/02 13:46:52;;;;;;;;;;;22.80;47.40;;;;;;5115569;28;19924;-52
2022/01/02 13:49:38;;;;;;;;;;;22.80;47.40;;;;;;5115471;28;19924;-51
2022/01/02 13:52:05;;;;;;;;;;;22.80;47.40;;;;;;5114914;28;19924;-47
2022/01/02 13:54:32;;;;;;;;;;;22.80;47.40;;;;;;5115375;28;19924;-54
2022/01/02 13:56:59;;;;;;;;;;;22.80;48.10;;;;;;5113910;28;19938;-54
2022/01/02 13:59:26;;;;;;;;;;;22.80;47.50;;;;;;5114881;28;19923;-56
2022/01/02 14:01:53;;;;;;;;;;;22.80;47.50;;;;;;5115248;28;19946;-50
2022/01/02 14:04:20;;;;;;;;;;;22.80;47.50;;;;;;5115219;28;20355;-51
2022/01/02 14:06:47;;;;;;;;;;;22.80;47.50;;;;;;5096825;28;19928;-48
2022/01/02 14:09:15;;;;;;;;;;;22.80;47.60;;;;;;5097452;28;19931;-52
2022/01/02 14:11:45;;;;;;;;;;;22.80;47.60;;;;;;5115056;28;19924;-51
2022/01/02 14:14:21;;;;;;;;;;;22.80;48.20;;;;;;5113615;28;20014;-52
2022/01/02 14:19:50;;;;;;;;;;;22.80;47.60;;;;;;5114560;28;19928;-51
2022/01/02 14:22:18;;;;;;;;;;;22.80;47.60;;;;;;5114263;28;20413;-50
2022/01/02 14:24:45;;;;;;;;;;;22.80;47.60;;;;;;5114592;28;19924;-59
2022/01/02 14:27:14;;;;;;;;;;;22.80;47.60;;;;;;5113908;28;19924;-53
2022/01/02 14:29:43;;;;;;;;;;;22.80;47.60;;;;;;5114131;28;20131;-56
2022/01/02 14:32:11;;;;;;;;;;;22.80;47.70;;;;;;5114429;28;19923;-51
2022/01/02 14:34:38;;;;;;;;;;;22.80;47.70;;;;;;5114404;28;20439;-55
2022/01/02 14:37:05;;;;;;;;;;;22.70;47.70;;;;;;5114702;28;20298;-55
2022/01/02 14:39:33;;;;;;;;;;;22.70;47.70;;;;;;5113373;28;19924;-51